aviador You're here:

GMMN Decoded Metar

CASABLANCA in MOROCCO
Report Time2018-07-22 02:30:00
UTC Time2018-07-22 02:59:26
Flight Rules vfr VFR
Wind020° at 05 kt
W.Decomp.*RWY 35: 4.2 kt HW 2.6 kt RCW
W.Rank020° ranks 1
Current wind is below 020° avg. (8.5)
Visibility9999 m
Phenomena:N/A
Clouds:Scattered 010 Hf
Expected CloudBase > 400 ft AGL from Temp-Dew spread
CeilingNone
Temp19°C (ISA +5)
Dew Point18°C (94% RH)
QNH1015 hPa
Density Alt1,512 ft
Elevation676 ft
Report Wrong Elevation
Raw Report
GMMN 220230Z 02005KT 9999 SCT010 19/18 Q1015 NOSIG=

Extra information for GMMN:More info

Metar Taf Metar & Taf Last 4 Metars F.Rules Stats Wind Profile Meteogram Temp Stats Airport Information Weather charts Add Link Nearby VenuesMetar ALERT Operation Metar Decoded Social comments